UAE2E VRMM-OMDB
Flight info
| Callsign | UAE2E |
|---|---|
| Flight time | N/A |
| Altitude | 38000 |
| Route | ELBET1A ELBET L894 KITAL P570 ITURA M762 VAXAS/N0395F240 M762 MIVEK P574 IMPED |
| Aircraft | B77W/H-SDE1E2E3FGHIJ2J3J4J5M1RWXY/LB1D1 |
Departure
| Time | 2026-05-08 21:36 |
|---|---|
| Airport | Velana International Airport (VRMM) |
Arrival
| Time | N/A |
|---|---|
| Airport | Dubai International Airport (OMDB) |
| Time | Latitude | Longitude | Altitude | Speed | Heading |
|---|---|---|---|---|---|
| 2026-05-08 21:05 | 4.17974 | 73.52772 | 17 ft | 0 kts | 270° |
| 2026-05-08 21:27 | 4.17974 | 73.52787 | 20 ft | 4 kts | 273° |
| 2026-05-08 21:27 | 4.17972 | 73.52814 | 22 ft | 4 kts | 283° |
| 2026-05-08 21:27 | 4.17964 | 73.52838 | 21 ft | 4 kts | 297° |
| 2026-05-08 21:28 | 4.17950 | 73.52858 | 22 ft | 4 kts | 323° |
| 2026-05-08 21:28 | 4.17933 | 73.52866 | 22 ft | 2 kts | 358° |
| 2026-05-08 21:28 | 4.17932 | 73.52866 | 22 ft | 0 kts | 359° |
| 2026-05-08 21:30 | 4.17931 | 73.52866 | 22 ft | 0 kts | 359° |
| 2026-05-08 21:32 | 4.17932 | 73.52866 | 22 ft | 1 kts | 359° |
| 2026-05-08 21:32 | 4.17950 | 73.52866 | 22 ft | 7 kts | 359° |
| 2026-05-08 21:32 | 4.18003 | 73.52865 | 18 ft | 8 kts | 359° |
| 2026-05-08 21:33 | 4.18059 | 73.52864 | 17 ft | 8 kts | 359° |
| 2026-05-08 21:33 | 4.18105 | 73.52863 | 17 ft | 5 kts | 359° |
| 2026-05-08 21:33 | 4.18124 | 73.52887 | 17 ft | 5 kts | 84° |
| 2026-05-08 21:33 | 4.18132 | 73.52924 | 17 ft | 5 kts | 64° |
| 2026-05-08 21:34 | 4.18166 | 73.52935 | 17 ft | 6 kts | 356° |
| 2026-05-08 21:34 | 4.18196 | 73.52961 | 17 ft | 6 kts | 68° |
| 2026-05-08 21:34 | 4.18198 | 73.53005 | 17 ft | 7 kts | 90° |
| 2026-05-08 21:34 | 4.18198 | 73.53051 | 17 ft | 7 kts | 90° |
| 2026-05-08 21:35 | 4.18209 | 73.53098 | 17 ft | 7 kts | 46° |
| 2026-05-08 21:35 | 4.18240 | 73.53101 | 17 ft | 1 kts | 360° |
| 2026-05-08 21:35 | 4.18338 | 73.53101 | 17 ft | 35 kts | 359° |
| 2026-05-08 21:35 | 4.18867 | 73.53101 | 17 ft | 116 kts | 1° |
| 2026-05-08 21:36 | 4.19912 | 73.53099 | 26 ft | 181 kts | 356° |
| 2026-05-08 21:36 | 4.21199 | 73.53130 | 678 ft | 183 kts | 356° |
| 2026-05-08 21:36 | 4.22469 | 73.53136 | 1504 ft | 182 kts | 357° |
| 2026-05-08 21:36 | 4.23763 | 73.53115 | 2200 ft | 188 kts | 355° |
| 2026-05-08 21:37 | 4.25083 | 73.53102 | 2882 ft | 191 kts | 356° |
| 2026-05-08 21:37 | 4.26407 | 73.53097 | 3536 ft | 195 kts | 356° |
| 2026-05-08 21:37 | 4.27862 | 73.53092 | 3784 ft | 223 kts | 357° |
| 2026-05-08 21:37 | 4.29511 | 73.53088 | 4073 ft | 249 kts | 357° |
| 2026-05-08 21:38 | 4.31281 | 73.53086 | 4705 ft | 260 kts | 358° |
| 2026-05-08 21:38 | 4.33112 | 73.53086 | 5498 ft | 266 kts | 358° |
| 2026-05-08 21:38 | 4.34970 | 73.53085 | 6337 ft | 269 kts | 358° |
| 2026-05-08 21:38 | 4.36849 | 73.53082 | 7137 ft | 272 kts | 358° |
| 2026-05-08 21:39 | 4.38747 | 73.53078 | 7984 ft | 273 kts | 359° |
| 2026-05-08 21:39 | 4.40616 | 73.53071 | 8869 ft | 269 kts | 357° |
| 2026-05-08 21:39 | 4.42448 | 73.52654 | 9461 ft | 277 kts | 334° |
| 2026-05-08 21:39 | 4.44049 | 73.51580 | 10142 ft | 280 kts | 321° |
| 2026-05-08 21:40 | 4.45565 | 73.50282 | 10585 ft | 298 kts | 319° |
| 2026-05-08 21:40 | 4.47198 | 73.48840 | 10758 ft | 326 kts | 319° |
| 2026-05-08 21:40 | 4.48971 | 73.47271 | 10946 ft | 352 kts | 319° |
| 2026-05-08 21:41 | 4.52709 | 73.43985 | 12589 ft | 364 kts | 319° |
| 2026-05-08 21:41 | 4.54638 | 73.42302 | 13479 ft | 369 kts | 319° |
| 2026-05-08 21:41 | 4.56590 | 73.40603 | 14268 ft | 374 kts | 319° |
| 2026-05-08 21:41 | 4.58570 | 73.38882 | 15082 ft | 379 kts | 319° |
| 2026-05-08 21:42 | 4.60576 | 73.37141 | 15843 ft | 384 kts | 319° |
| 2026-05-08 21:42 | 4.62598 | 73.35385 | 16707 ft | 387 kts | 319° |
| 2026-05-08 21:42 | 4.64646 | 73.33607 | 17476 ft | 392 kts | 319° |
| 2026-05-08 21:42 | 4.66713 | 73.31814 | 18273 ft | 395 kts | 319° |
| 2026-05-08 21:43 | 4.68800 | 73.30002 | 18993 ft | 399 kts | 319° |
| 2026-05-08 21:43 | 4.70889 | 73.28189 | 19654 ft | 404 kts | 319° |
| 2026-05-08 21:43 | 4.73035 | 73.26327 | 20222 ft | 411 kts | 319° |
| 2026-05-08 21:43 | 4.75212 | 73.24437 | 20841 ft | 416 kts | 319° |
| 2026-05-08 21:44 | 4.77439 | 73.22502 | 21526 ft | 421 kts | 319° |
| 2026-05-08 21:44 | 4.79644 | 73.20587 | 22089 ft | 428 kts | 319° |
| 2026-05-08 21:44 | 4.81909 | 73.18620 | 22641 ft | 434 kts | 319° |
| 2026-05-08 21:44 | 4.84211 | 73.16620 | 23218 ft | 440 kts | 319° |
| 2026-05-08 21:45 | 4.86531 | 73.14603 | 23732 ft | 444 kts | 319° |
| 2026-05-08 21:45 | 4.88881 | 73.12560 | 24196 ft | 449 kts | 319° |
| 2026-05-08 21:45 | 4.91259 | 73.10493 | 24622 ft | 456 kts | 320° |
| 2026-05-08 21:45 | 4.93665 | 73.08402 | 25031 ft | 461 kts | 320° |
| 2026-05-08 21:46 | 4.96096 | 73.06288 | 25496 ft | 465 kts | 319° |
| 2026-05-08 21:46 | 4.98551 | 73.04154 | 25970 ft | 468 kts | 320° |
| 2026-05-08 21:46 | 5.01019 | 73.02008 | 26438 ft | 472 kts | 320° |
| 2026-05-08 21:46 | 5.03509 | 72.99843 | 26866 ft | 476 kts | 320° |
| 2026-05-08 21:47 | 5.06021 | 72.97657 | 27317 ft | 480 kts | 320° |
| 2026-05-08 21:47 | 5.08555 | 72.95454 | 27746 ft | 484 kts | 320° |
| 2026-05-08 21:47 | 5.11109 | 72.93232 | 28160 ft | 488 kts | 320° |
| 2026-05-08 21:47 | 5.13681 | 72.90994 | 28599 ft | 491 kts | 320° |
| 2026-05-08 21:48 | 5.16271 | 72.88740 | 29030 ft | 494 kts | 320° |
| 2026-05-08 21:48 | 5.18883 | 72.86467 | 29445 ft | 498 kts | 320° |
| 2026-05-08 21:48 | 5.21510 | 72.84181 | 29831 ft | 502 kts | 320° |
| 2026-05-08 21:48 | 5.24155 | 72.81878 | 30163 ft | 504 kts | 320° |
| 2026-05-08 21:49 | 5.26812 | 72.79564 | 30483 ft | 507 kts | 320° |
| 2026-05-08 21:49 | 5.29476 | 72.77245 | 30835 ft | 508 kts | 320° |
| 2026-05-08 21:49 | 5.32142 | 72.74923 | 31257 ft | 507 kts | 320° |
| 2026-05-08 21:49 | 5.34804 | 72.72605 | 31731 ft | 505 kts | 320° |
| 2026-05-08 21:50 | 5.37458 | 72.70293 | 32193 ft | 504 kts | 320° |
| 2026-05-08 21:50 | 5.40069 | 72.68019 | 32640 ft | 503 kts | 320° |
| 2026-05-08 21:50 | 5.42712 | 72.65715 | 33090 ft | 502 kts | 320° |
| 2026-05-08 21:50 | 5.45347 | 72.63420 | 33528 ft | 501 kts | 320° |
| 2026-05-08 21:51 | 5.47982 | 72.61124 | 33941 ft | 501 kts | 320° |
| 2026-05-08 21:51 | 5.50610 | 72.58834 | 34333 ft | 500 kts | 320° |
| 2026-05-08 21:51 | 5.53229 | 72.56551 | 34724 ft | 499 kts | 320° |
| 2026-05-08 21:51 | 5.55843 | 72.54271 | 35085 ft | 498 kts | 320° |
| 2026-05-08 21:52 | 5.58459 | 72.51991 | 35448 ft | 497 kts | 320° |
| 2026-05-08 21:52 | 5.61071 | 72.49714 | 35814 ft | 496 kts | 320° |
| 2026-05-08 21:52 | 5.63674 | 72.47444 | 36176 ft | 495 kts | 320° |
| 2026-05-08 21:52 | 5.66276 | 72.45174 | 36507 ft | 495 kts | 320° |
| 2026-05-08 21:53 | 5.67994 | 72.43675 | 36747 ft | 494 kts | 320° |
| 2026-05-08 21:53 | 5.70588 | 72.41413 | 37105 ft | 493 kts | 320° |
| 2026-05-08 21:53 | 5.73175 | 72.39156 | 37450 ft | 492 kts | 321° |
| 2026-05-08 21:53 | 5.75754 | 72.36905 | 37759 ft | 492 kts | 321° |
| 2026-05-08 21:54 | 5.80955 | 72.32367 | 37822 ft | 496 kts | 321° |
| 2026-05-08 21:54 | 5.86144 | 72.27835 | 37814 ft | 491 kts | 320° |
| 2026-05-08 21:55 | 5.91282 | 72.23348 | 37820 ft | 488 kts | 320° |
| 2026-05-08 21:56 | 5.98956 | 72.16648 | 37828 ft | 487 kts | 320° |
| 2026-05-08 21:56 | 6.04052 | 72.12200 | 37826 ft | 488 kts | 321° |
| 2026-05-08 21:57 | 6.09175 | 72.07724 | 37823 ft | 489 kts | 320° |
| 2026-05-08 21:57 | 6.14319 | 72.03228 | 37829 ft | 491 kts | 320° |
| 2026-05-08 21:58 | 6.19478 | 71.98718 | 37825 ft | 492 kts | 320° |
| 2026-05-08 21:58 | 6.24655 | 71.94191 | 37828 ft | 494 kts | 320° |
| 2026-05-08 21:59 | 6.29844 | 71.89652 | 37827 ft | 495 kts | 320° |
| 2026-05-08 21:59 | 6.35043 | 71.85102 | 37824 ft | 496 kts | 320° |
| 2026-05-08 22:00 | 6.40327 | 71.80633 | 37826 ft | 496 kts | 323° |
| 2026-05-08 22:00 | 6.45800 | 71.76390 | 37826 ft | 496 kts | 324° |
| 2026-05-08 22:01 | 6.51286 | 71.72178 | 37827 ft | 497 kts | 324° |
| 2026-05-08 22:01 | 6.56752 | 71.67931 | 37823 ft | 496 kts | 323° |
| 2026-05-08 22:02 | 6.62167 | 71.63689 | 37825 ft | 496 kts | 323° |
| 2026-05-08 22:02 | 6.67612 | 71.59418 | 37818 ft | 496 kts | 323° |
| 2026-05-08 22:03 | 6.73052 | 71.55152 | 37822 ft | 496 kts | 323° |
| 2026-05-08 22:03 | 6.78493 | 71.50885 | 37817 ft | 496 kts | 323° |
| 2026-05-08 22:04 | 6.83934 | 71.46620 | 37824 ft | 496 kts | 323° |
| 2026-05-08 22:04 | 6.89376 | 71.42350 | 37823 ft | 496 kts | 323° |
| 2026-05-08 22:05 | 6.94824 | 71.38076 | 37818 ft | 497 kts | 323° |
| 2026-05-08 22:05 | 7.00270 | 71.33801 | 37819 ft | 497 kts | 323° |
| 2026-05-08 22:06 | 7.05724 | 71.29518 | 37820 ft | 497 kts | 323° |
| 2026-05-08 22:06 | 7.11178 | 71.25235 | 37817 ft | 497 kts | 323° |
| 2026-05-08 22:07 | 7.16633 | 71.20950 | 37822 ft | 498 kts | 323° |
| 2026-05-08 22:07 | 7.22096 | 71.16656 | 37825 ft | 498 kts | 323° |
| 2026-05-08 22:08 | 7.27554 | 71.12365 | 37825 ft | 498 kts | 323° |
| 2026-05-08 22:08 | 7.33023 | 71.08064 | 37819 ft | 498 kts | 323° |
| 2026-05-08 22:09 | 7.38491 | 71.03762 | 37817 ft | 499 kts | 323° |
| 2026-05-08 22:09 | 7.43957 | 70.99460 | 37822 ft | 498 kts | 323° |
| 2026-05-08 22:10 | 7.49420 | 70.95159 | 37820 ft | 498 kts | 323° |
| 2026-05-08 22:10 | 7.54879 | 70.90858 | 37826 ft | 498 kts | 323° |
| 2026-05-08 22:11 | 7.60296 | 70.86585 | 37823 ft | 498 kts | 323° |
| 2026-05-08 22:11 | 7.65742 | 70.82287 | 37823 ft | 497 kts | 323° |
| 2026-05-08 22:12 | 7.71186 | 70.77988 | 37821 ft | 496 kts | 323° |
| 2026-05-08 22:12 | 7.76618 | 70.73697 | 37817 ft | 495 kts | 323° |
| 2026-05-08 22:13 | 7.82039 | 70.69414 | 37818 ft | 494 kts | 323° |
| 2026-05-08 22:13 | 7.87440 | 70.65145 | 37820 ft | 493 kts | 323° |
| 2026-05-08 22:14 | 7.92833 | 70.60881 | 37815 ft | 492 kts | 323° |
| 2026-05-08 22:14 | 7.98177 | 70.56654 | 37820 ft | 491 kts | 323° |
| 2026-05-08 22:15 | 8.03553 | 70.52401 | 37822 ft | 491 kts | 323° |
| 2026-05-08 22:15 | 8.08932 | 70.48145 | 37820 ft | 491 kts | 323° |
| 2026-05-08 22:16 | 8.14305 | 70.43890 | 37824 ft | 491 kts | 323° |
| 2026-05-08 22:16 | 8.19686 | 70.39629 | 37823 ft | 492 kts | 323° |
| 2026-05-08 22:17 | 8.25069 | 70.35364 | 37821 ft | 492 kts | 323° |
| 2026-05-08 22:17 | 8.30466 | 70.31086 | 37821 ft | 493 kts | 323° |
| 2026-05-08 22:18 | 8.35866 | 70.26805 | 37817 ft | 494 kts | 323° |
| 2026-05-08 22:18 | 8.41269 | 70.22519 | 37820 ft | 494 kts | 323° |
| 2026-05-08 22:19 | 8.46676 | 70.18229 | 37818 ft | 494 kts | 323° |
| 2026-05-08 22:19 | 8.52079 | 70.13941 | 37819 ft | 494 kts | 323° |
| 2026-05-08 22:20 | 8.57477 | 70.09654 | 37817 ft | 493 kts | 323° |
| 2026-05-08 22:20 | 8.62872 | 70.05369 | 37817 ft | 493 kts | 323° |
| 2026-05-08 22:21 | 8.68256 | 70.01090 | 37822 ft | 492 kts | 323° |
| 2026-05-08 22:21 | 8.73638 | 69.96812 | 37819 ft | 491 kts | 323° |
| 2026-05-08 22:22 | 8.79011 | 69.92540 | 37819 ft | 491 kts | 323° |
| 2026-05-08 22:22 | 8.84341 | 69.88300 | 37834 ft | 490 kts | 323° |
| 2026-05-08 22:23 | 8.89701 | 69.84034 | 37818 ft | 490 kts | 323° |
| 2026-05-08 22:23 | 8.95053 | 69.79774 | 37816 ft | 490 kts | 323° |
| 2026-05-08 22:24 | 9.00410 | 69.75507 | 37835 ft | 490 kts | 323° |
| 2026-05-08 22:24 | 9.05762 | 69.71243 | 37832 ft | 490 kts | 323° |
| 2026-05-08 22:25 | 9.11113 | 69.66978 | 37820 ft | 490 kts | 323° |
| 2026-05-08 22:25 | 9.16469 | 69.62708 | 37817 ft | 490 kts | 323° |
| 2026-05-08 22:26 | 9.21821 | 69.58438 | 37833 ft | 490 kts | 323° |
| 2026-05-08 22:26 | 9.27178 | 69.54163 | 37832 ft | 490 kts | 323° |
| 2026-05-08 22:27 | 9.32527 | 69.49893 | 37818 ft | 490 kts | 323° |
| 2026-05-08 22:27 | 9.37880 | 69.45617 | 37815 ft | 490 kts | 323° |
| 2026-05-08 22:28 | 9.43230 | 69.41342 | 37833 ft | 490 kts | 323° |
| 2026-05-08 22:28 | 9.48580 | 69.37067 | 37835 ft | 489 kts | 323° |
| 2026-05-08 22:29 | 9.53890 | 69.32820 | 37835 ft | 489 kts | 323° |
| 2026-05-08 22:29 | 9.59229 | 69.28549 | 37816 ft | 489 kts | 323° |
| 2026-05-08 22:30 | 9.64577 | 69.24269 | 37822 ft | 489 kts | 323° |
| 2026-05-08 22:30 | 9.69916 | 69.19993 | 37829 ft | 489 kts | 323° |
| 2026-05-08 22:31 | 9.75254 | 69.15717 | 37834 ft | 489 kts | 323° |
| 2026-05-08 22:31 | 9.80594 | 69.11438 | 37838 ft | 489 kts | 322° |
| 2026-05-08 22:32 | 9.85933 | 69.07157 | 37819 ft | 489 kts | 322° |
| 2026-05-08 22:32 | 9.91268 | 69.02876 | 37821 ft | 489 kts | 322° |
| 2026-05-08 22:33 | 9.96605 | 68.98591 | 37837 ft | 489 kts | 322° |
| 2026-05-08 22:33 | 10.01940 | 68.94305 | 37838 ft | 489 kts | 322° |
| 2026-05-08 22:34 | 10.07243 | 68.90044 | 37837 ft | 489 kts | 322° |
| 2026-05-08 22:34 | 10.12580 | 68.85754 | 37819 ft | 489 kts | 322° |
| 2026-05-08 22:35 | 10.17913 | 68.81465 | 37838 ft | 489 kts | 322° |
| 2026-05-08 22:35 | 10.23252 | 68.77169 | 37837 ft | 489 kts | 322° |
| 2026-05-08 22:36 | 10.28592 | 68.72871 | 37841 ft | 489 kts | 322° |
| 2026-05-08 22:36 | 10.33931 | 68.68571 | 37823 ft | 490 kts | 322° |
| 2026-05-08 22:37 | 10.39269 | 68.64270 | 37840 ft | 490 kts | 322° |
| 2026-05-08 22:37 | 10.44612 | 68.59964 | 37836 ft | 490 kts | 322° |
| 2026-05-08 22:38 | 10.49953 | 68.55657 | 37821 ft | 490 kts | 322° |
| 2026-05-08 22:38 | 10.55291 | 68.51350 | 37804 ft | 491 kts | 322° |
| 2026-05-08 22:39 | 10.60673 | 68.47007 | 37839 ft | 497 kts | 322° |
| 2026-05-08 22:39 | 10.66102 | 68.42623 | 37833 ft | 499 kts | 322° |
| 2026-05-08 22:40 | 10.71541 | 68.38229 | 37833 ft | 500 kts | 322° |
| 2026-05-08 22:40 | 10.76984 | 68.33829 | 37829 ft | 499 kts | 322° |
| 2026-05-08 22:41 | 10.82376 | 68.29469 | 37831 ft | 497 kts | 322° |
| 2026-05-08 22:41 | 10.87780 | 68.25096 | 37829 ft | 496 kts | 322° |
| 2026-05-08 22:42 | 10.93175 | 68.20730 | 37831 ft | 495 kts | 322° |
| 2026-05-08 22:42 | 10.97682 | 68.17080 | 37832 ft | 494 kts | 322° |
| 2026-05-08 22:43 | 11.03057 | 68.12726 | 37831 ft | 493 kts | 322° |
| 2026-05-08 22:43 | 11.08391 | 68.08402 | 37839 ft | 493 kts | 322° |
| 2026-05-08 22:44 | 11.13765 | 68.04044 | 37837 ft | 493 kts | 322° |
| 2026-05-08 22:44 | 11.19140 | 67.99684 | 37839 ft | 494 kts | 322° |
| 2026-05-08 22:45 | 11.24518 | 67.95319 | 37837 ft | 495 kts | 322° |
| 2026-05-08 22:45 | 11.29912 | 67.90938 | 37838 ft | 496 kts | 322° |
| 2026-05-08 22:46 | 11.35312 | 67.86551 | 37839 ft | 497 kts | 321° |
| 2026-05-08 22:46 | 11.40717 | 67.82156 | 37837 ft | 497 kts | 321° |
| 2026-05-08 22:47 | 11.46131 | 67.77753 | 37842 ft | 498 kts | 321° |
| 2026-05-08 22:47 | 11.51550 | 67.73343 | 37842 ft | 498 kts | 322° |
| 2026-05-08 22:48 | 11.56972 | 67.68929 | 37842 ft | 499 kts | 322° |
| 2026-05-08 22:48 | 11.62393 | 67.64514 | 37837 ft | 499 kts | 322° |
| 2026-05-08 22:49 | 11.67814 | 67.60095 | 37839 ft | 499 kts | 322° |
| 2026-05-08 22:49 | 11.75937 | 67.53470 | 37844 ft | 498 kts | 322° |
| 2026-05-08 22:50 | 11.81308 | 67.49087 | 37840 ft | 497 kts | 322° |
| 2026-05-08 22:50 | 11.86711 | 67.44674 | 37843 ft | 497 kts | 322° |
| 2026-05-08 22:51 | 11.92100 | 67.40272 | 37842 ft | 496 kts | 322° |
| 2026-05-08 22:51 | 11.97485 | 67.35870 | 37844 ft | 495 kts | 322° |
| 2026-05-08 22:52 | 12.02867 | 67.31473 | 37839 ft | 495 kts | 322° |
| 2026-05-08 22:52 | 12.08234 | 67.27084 | 37843 ft | 494 kts | 322° |
| 2026-05-08 22:53 | 12.13598 | 67.22695 | 37840 ft | 494 kts | 322° |
| 2026-05-08 22:53 | 12.18960 | 67.18303 | 37846 ft | 494 kts | 322° |
| 2026-05-08 22:54 | 12.24316 | 67.13915 | 37845 ft | 493 kts | 321° |
| 2026-05-08 22:54 | 12.29671 | 67.09524 | 37850 ft | 493 kts | 321° |
| 2026-05-08 22:55 | 12.35025 | 67.05133 | 37852 ft | 493 kts | 321° |
| 2026-05-08 22:55 | 12.40377 | 67.00740 | 37847 ft | 493 kts | 321° |
| 2026-05-08 22:56 | 12.45731 | 66.96345 | 37850 ft | 493 kts | 321° |
| 2026-05-08 22:56 | 12.51077 | 66.91952 | 37851 ft | 493 kts | 321° |
| 2026-05-08 22:57 | 12.56392 | 66.87583 | 37848 ft | 493 kts | 321° |
| 2026-05-08 22:57 | 12.61735 | 66.83188 | 37849 ft | 493 kts | 321° |
| 2026-05-08 22:58 | 12.67077 | 66.78793 | 37849 ft | 492 kts | 321° |
| 2026-05-08 22:58 | 12.72420 | 66.74393 | 37848 ft | 492 kts | 321° |
| 2026-05-08 22:59 | 12.77755 | 66.69998 | 37853 ft | 492 kts | 321° |
| 2026-05-08 22:59 | 12.83092 | 66.65599 | 37853 ft | 492 kts | 321° |
| 2026-05-08 23:00 | 12.88424 | 66.61201 | 37851 ft | 492 kts | 321° |
| 2026-05-08 23:00 | 12.93752 | 66.56804 | 37850 ft | 492 kts | 321° |
| 2026-05-08 23:01 | 12.99082 | 66.52403 | 37852 ft | 492 kts | 321° |
| 2026-05-08 23:01 | 13.04412 | 66.48000 | 37854 ft | 492 kts | 321° |
| 2026-05-08 23:02 | 13.09736 | 66.43599 | 37854 ft | 492 kts | 321° |
| 2026-05-08 23:02 | 13.15059 | 66.39196 | 37854 ft | 492 kts | 321° |
| 2026-05-08 23:03 | 13.20352 | 66.34815 | 37855 ft | 492 kts | 321° |
| 2026-05-08 23:03 | 13.25676 | 66.30407 | 37853 ft | 491 kts | 321° |
| 2026-05-08 23:04 | 13.30993 | 66.26001 | 37855 ft | 491 kts | 321° |
| 2026-05-08 23:04 | 13.36315 | 66.21589 | 37859 ft | 492 kts | 321° |
| 2026-05-08 23:05 | 13.41635 | 66.17176 | 37855 ft | 492 kts | 321° |
| 2026-05-08 23:05 | 13.46961 | 66.12756 | 37859 ft | 492 kts | 321° |
| 2026-05-08 23:06 | 13.52273 | 66.08344 | 37858 ft | 491 kts | 321° |
| 2026-05-08 23:06 | 13.57594 | 66.03923 | 37854 ft | 492 kts | 321° |
| 2026-05-08 23:07 | 13.62913 | 65.99500 | 37860 ft | 492 kts | 321° |
| 2026-05-08 23:07 | 13.68235 | 65.95073 | 37857 ft | 492 kts | 321° |
| 2026-05-08 23:08 | 13.73548 | 65.90649 | 37855 ft | 492 kts | 321° |
| 2026-05-08 23:08 | 13.78835 | 65.86245 | 37858 ft | 492 kts | 321° |
| 2026-05-08 23:09 | 13.84153 | 65.81813 | 37856 ft | 492 kts | 321° |
| 2026-05-08 23:09 | 13.89473 | 65.77376 | 37857 ft | 492 kts | 321° |
| 2026-05-08 23:10 | 13.94791 | 65.72938 | 37858 ft | 492 kts | 321° |
| 2026-05-08 23:10 | 14.00104 | 65.68502 | 37856 ft | 492 kts | 321° |
| 2026-05-08 23:11 | 14.05416 | 65.64063 | 37860 ft | 492 kts | 321° |
| 2026-05-08 23:11 | 14.10733 | 65.59618 | 37858 ft | 492 kts | 321° |
| 2026-05-08 23:12 | 14.16043 | 65.55176 | 37855 ft | 492 kts | 321° |
| 2026-05-08 23:12 | 14.21351 | 65.50733 | 37859 ft | 491 kts | 321° |
| 2026-05-08 23:13 | 14.26650 | 65.46294 | 37859 ft | 491 kts | 321° |
| 2026-05-08 23:13 | 14.31954 | 65.41849 | 37857 ft | 491 kts | 321° |
| 2026-05-08 23:14 | 14.37250 | 65.37407 | 37858 ft | 491 kts | 321° |
| 2026-05-08 23:14 | 14.42542 | 65.32965 | 37859 ft | 491 kts | 321° |
| 2026-05-08 23:15 | 14.47833 | 65.28522 | 37862 ft | 490 kts | 321° |
| 2026-05-08 23:15 | 14.53124 | 65.24075 | 37864 ft | 490 kts | 321° |
| 2026-05-08 23:16 | 14.58407 | 65.19633 | 37866 ft | 490 kts | 321° |
| 2026-05-08 23:16 | 14.63688 | 65.15192 | 37866 ft | 489 kts | 321° |
| 2026-05-08 23:17 | 14.68969 | 65.10749 | 37867 ft | 489 kts | 321° |
| 2026-05-08 23:17 | 14.74240 | 65.06309 | 37871 ft | 489 kts | 321° |
| 2026-05-08 23:18 | 14.79471 | 65.01899 | 37869 ft | 488 kts | 321° |
| 2026-05-08 23:18 | 14.84736 | 64.97458 | 37871 ft | 488 kts | 321° |
| 2026-05-08 23:19 | 14.89988 | 64.93025 | 37869 ft | 487 kts | 321° |
| 2026-05-08 23:19 | 14.95241 | 64.88589 | 37871 ft | 487 kts | 321° |
| 2026-05-08 23:20 | 15.00484 | 64.84158 | 37874 ft | 486 kts | 321° |
| 2026-05-08 23:20 | 15.05680 | 64.79764 | 37870 ft | 486 kts | 321° |
| 2026-05-08 23:21 | 15.10906 | 64.75341 | 37872 ft | 485 kts | 321° |
| 2026-05-08 23:21 | 15.16133 | 64.70915 | 37875 ft | 485 kts | 321° |
| 2026-05-08 23:22 | 15.21348 | 64.66496 | 37873 ft | 484 kts | 321° |
| 2026-05-08 23:22 | 15.26559 | 64.62078 | 37876 ft | 484 kts | 321° |
| 2026-05-08 23:23 | 15.31776 | 64.57652 | 37873 ft | 484 kts | 321° |
| 2026-05-08 23:23 | 15.36984 | 64.53230 | 37876 ft | 484 kts | 321° |
| 2026-05-08 23:24 | 15.42187 | 64.48810 | 37875 ft | 484 kts | 321° |
| 2026-05-08 23:24 | 15.47391 | 64.44385 | 37873 ft | 484 kts | 321° |
| 2026-05-08 23:25 | 15.52594 | 64.39958 | 37875 ft | 484 kts | 321° |
| 2026-05-08 23:25 | 15.57794 | 64.35531 | 37873 ft | 483 kts | 321° |
| 2026-05-08 23:26 | 15.62990 | 64.31105 | 37871 ft | 483 kts | 321° |
| 2026-05-08 23:26 | 15.68187 | 64.26675 | 37874 ft | 483 kts | 321° |
| 2026-05-08 23:27 | 15.73350 | 64.22270 | 37875 ft | 483 kts | 321° |
| 2026-05-08 23:27 | 15.78538 | 64.17842 | 37878 ft | 483 kts | 321° |
| 2026-05-08 23:28 | 15.83732 | 64.13405 | 37877 ft | 483 kts | 321° |
| 2026-05-08 23:28 | 15.88919 | 64.08971 | 37878 ft | 483 kts | 321° |
| 2026-05-08 23:29 | 15.93234 | 64.05281 | 37879 ft | 483 kts | 321° |
| 2026-05-08 23:29 | 15.98418 | 64.00843 | 37880 ft | 483 kts | 321° |
| 2026-05-08 23:30 | 16.03601 | 63.96404 | 37881 ft | 482 kts | 321° |
| 2026-05-08 23:30 | 16.08781 | 63.91965 | 37880 ft | 482 kts | 321° |
| 2026-05-08 23:31 | 16.13958 | 63.87525 | 37884 ft | 482 kts | 321° |
| 2026-05-08 23:31 | 16.19136 | 63.83080 | 37882 ft | 482 kts | 321° |
| 2026-05-08 23:32 | 16.24310 | 63.78636 | 37885 ft | 482 kts | 321° |
| 2026-05-08 23:32 | 16.29482 | 63.74191 | 37880 ft | 482 kts | 321° |
| 2026-05-08 23:33 | 16.34655 | 63.69741 | 37883 ft | 482 kts | 320° |
| 2026-05-08 23:33 | 16.39819 | 63.65297 | 37880 ft | 482 kts | 320° |
| 2026-05-08 23:34 | 16.44979 | 63.60852 | 37883 ft | 481 kts | 320° |
| 2026-05-08 23:34 | 16.50137 | 63.56406 | 37882 ft | 481 kts | 320° |
| 2026-05-08 23:35 | 16.55294 | 63.51958 | 37885 ft | 481 kts | 320° |
| 2026-05-08 23:35 | 16.60408 | 63.47544 | 37882 ft | 481 kts | 320° |
| 2026-05-08 23:36 | 16.65558 | 63.43095 | 37883 ft | 480 kts | 320° |
| 2026-05-08 23:36 | 16.70703 | 63.38648 | 37883 ft | 480 kts | 320° |
| 2026-05-08 23:37 | 16.75847 | 63.34197 | 37883 ft | 480 kts | 320° |
| 2026-05-08 23:37 | 16.80994 | 63.29741 | 37882 ft | 480 kts | 320° |
| 2026-05-08 23:38 | 16.86130 | 63.25291 | 37883 ft | 480 kts | 320° |
| 2026-05-08 23:38 | 16.91271 | 63.20834 | 37881 ft | 480 kts | 320° |
| 2026-05-08 23:39 | 16.96408 | 63.16377 | 37883 ft | 480 kts | 320° |
| 2026-05-08 23:39 | 17.01510 | 63.11945 | 37882 ft | 480 kts | 320° |
| 2026-05-08 23:40 | 17.06583 | 63.07396 | 37884 ft | 480 kts | 319° |
| 2026-05-08 23:40 | 17.11610 | 63.02798 | 37883 ft | 480 kts | 319° |
| 2026-05-08 23:41 | 17.16643 | 62.98201 | 37881 ft | 480 kts | 319° |
| 2026-05-08 23:41 | 17.21681 | 62.93612 | 37878 ft | 480 kts | 319° |
| 2026-05-08 23:42 | 17.26716 | 62.89030 | 37877 ft | 480 kts | 319° |
| 2026-05-08 23:42 | 17.31750 | 62.84447 | 37882 ft | 479 kts | 319° |
| 2026-05-08 23:43 | 17.36780 | 62.79864 | 37882 ft | 479 kts | 319° |
| 2026-05-08 23:43 | 17.41775 | 62.75308 | 37881 ft | 479 kts | 319° |
| 2026-05-08 23:44 | 17.46794 | 62.70726 | 37885 ft | 479 kts | 319° |
| 2026-05-08 23:44 | 17.51812 | 62.66143 | 37882 ft | 478 kts | 318° |
| 2026-05-08 23:45 | 17.56825 | 62.61560 | 37878 ft | 478 kts | 319° |
| 2026-05-08 23:45 | 17.61833 | 62.56978 | 37881 ft | 478 kts | 318° |
| 2026-05-08 23:46 | 17.66840 | 62.52395 | 37879 ft | 477 kts | 318° |
| 2026-05-08 23:46 | 17.71836 | 62.47817 | 37880 ft | 477 kts | 318° |
| 2026-05-08 23:47 | 17.76828 | 62.43240 | 37879 ft | 477 kts | 318° |
| 2026-05-08 23:47 | 17.81819 | 62.38660 | 37882 ft | 476 kts | 318° |
| 2026-05-08 23:48 | 17.86802 | 62.34084 | 37880 ft | 476 kts | 318° |
| 2026-05-08 23:48 | 17.91751 | 62.29535 | 37880 ft | 476 kts | 318° |
| 2026-05-08 23:49 | 17.96728 | 62.24956 | 37877 ft | 475 kts | 318° |
| 2026-05-08 23:49 | 18.01705 | 62.20374 | 37879 ft | 475 kts | 318° |
| 2026-05-08 23:50 | 18.06678 | 62.15794 | 37879 ft | 475 kts | 318° |
| 2026-05-08 23:50 | 18.11647 | 62.11213 | 37876 ft | 475 kts | 318° |
| 2026-05-08 23:51 | 18.16615 | 62.06629 | 37875 ft | 475 kts | 318° |
| 2026-05-08 23:51 | 18.21576 | 62.02048 | 37876 ft | 475 kts | 318° |
| 2026-05-08 23:52 | 18.26539 | 61.97461 | 37875 ft | 475 kts | 318° |
| 2026-05-08 23:52 | 18.31501 | 61.92873 | 37874 ft | 474 kts | 318° |
| 2026-05-08 23:53 | 18.36455 | 61.88286 | 37872 ft | 474 kts | 317° |
| 2026-05-08 23:53 | 18.41402 | 61.83704 | 37873 ft | 474 kts | 317° |
| 2026-05-08 23:54 | 18.46354 | 61.79114 | 37872 ft | 474 kts | 317° |
| 2026-05-08 23:55 | 18.53786 | 61.72216 | 37863 ft | 474 kts | 317° |
| 2026-05-08 23:55 | 18.58733 | 61.67621 | 37872 ft | 474 kts | 317° |
| 2026-05-08 23:56 | 18.63683 | 61.63018 | 37867 ft | 474 kts | 317° |
| 2026-05-08 23:56 | 18.68599 | 61.58444 | 37869 ft | 474 kts | 317° |
| 2026-05-08 23:57 | 18.73544 | 61.53840 | 37865 ft | 474 kts | 317° |
| 2026-05-08 23:57 | 18.78490 | 61.49230 | 37871 ft | 474 kts | 317° |
| 2026-05-08 23:58 | 18.83430 | 61.44623 | 37871 ft | 474 kts | 317° |
| 2026-05-08 23:58 | 18.88375 | 61.40007 | 37865 ft | 474 kts | 317° |
| 2026-05-08 23:59 | 18.93311 | 61.35394 | 37864 ft | 474 kts | 317° |
| 2026-05-08 23:59 | 18.98248 | 61.30778 | 37866 ft | 474 kts | 317° |
| 2026-05-09 00:00 | 19.03182 | 61.26162 | 37864 ft | 473 kts | 317° |
| 2026-05-09 00:00 | 19.08114 | 61.21543 | 37860 ft | 473 kts | 317° |
| 2026-05-09 00:01 | 19.13037 | 61.16928 | 37858 ft | 473 kts | 317° |
| 2026-05-09 00:01 | 19.17965 | 61.12305 | 37860 ft | 473 kts | 317° |
| 2026-05-09 00:02 | 19.22886 | 61.07684 | 37854 ft | 473 kts | 317° |
| 2026-05-09 00:02 | 19.27774 | 61.03092 | 37859 ft | 473 kts | 317° |
| 2026-05-09 00:03 | 19.32690 | 60.98468 | 37855 ft | 473 kts | 317° |
| 2026-05-09 00:03 | 19.37606 | 60.93840 | 37849 ft | 473 kts | 317° |
| 2026-05-09 00:04 | 19.42514 | 60.89217 | 37857 ft | 472 kts | 317° |
| 2026-05-09 00:04 | 19.47423 | 60.84589 | 37864 ft | 472 kts | 317° |
| 2026-05-09 00:05 | 19.52328 | 60.79961 | 37852 ft | 472 kts | 317° |
| 2026-05-09 00:05 | 19.57230 | 60.75330 | 37856 ft | 472 kts | 317° |
| 2026-05-09 00:06 | 19.62135 | 60.70694 | 37854 ft | 472 kts | 317° |
| 2026-05-09 00:06 | 19.67040 | 60.66054 | 37848 ft | 472 kts | 317° |
| 2026-05-09 00:07 | 19.71944 | 60.61411 | 37847 ft | 472 kts | 317° |
| 2026-05-09 00:07 | 19.76847 | 60.56763 | 37846 ft | 473 kts | 317° |
| 2026-05-09 00:08 | 19.81752 | 60.52111 | 37839 ft | 472 kts | 317° |
| 2026-05-09 00:08 | 19.86651 | 60.47460 | 37839 ft | 472 kts | 317° |
| 2026-05-09 00:09 | 19.91553 | 60.42802 | 37840 ft | 472 kts | 316° |
| 2026-05-09 00:09 | 19.96450 | 60.38144 | 37839 ft | 472 kts | 317° |
| 2026-05-09 00:10 | 20.01350 | 60.33480 | 37842 ft | 473 kts | 317° |
| 2026-05-09 00:10 | 20.06398 | 60.29070 | 37836 ft | 474 kts | 324° |
| 2026-05-09 00:11 | 20.12080 | 60.25412 | 37835 ft | 475 kts | 328° |
| 2026-05-09 00:11 | 20.17790 | 60.21867 | 37839 ft | 475 kts | 328° |
| 2026-05-09 00:12 | 20.23449 | 60.18316 | 37831 ft | 475 kts | 328° |
| 2026-05-09 00:12 | 20.29127 | 60.14719 | 37836 ft | 475 kts | 327° |
| 2026-05-09 00:13 | 20.34801 | 60.11111 | 37830 ft | 474 kts | 327° |
| 2026-05-09 00:13 | 20.40464 | 60.07508 | 37829 ft | 474 kts | 327° |
| 2026-05-09 00:14 | 20.46130 | 60.03903 | 37825 ft | 473 kts | 327° |
| 2026-05-09 00:14 | 20.51781 | 60.00304 | 37818 ft | 473 kts | 327° |
| 2026-05-09 00:15 | 20.57430 | 59.96701 | 37830 ft | 473 kts | 327° |
| 2026-05-09 00:15 | 20.63074 | 59.93099 | 37824 ft | 472 kts | 327° |
| 2026-05-09 00:16 | 20.68675 | 59.89522 | 37829 ft | 472 kts | 327° |
| 2026-05-09 00:16 | 20.74313 | 59.85919 | 37826 ft | 472 kts | 327° |
| 2026-05-09 00:17 | 20.79954 | 59.82311 | 37822 ft | 472 kts | 327° |
| 2026-05-09 00:17 | 20.85582 | 59.78707 | 37822 ft | 472 kts | 327° |
| 2026-05-09 00:18 | 20.91217 | 59.75094 | 37826 ft | 472 kts | 327° |
| 2026-05-09 00:18 | 20.95910 | 59.72083 | 37806 ft | 473 kts | 327° |
| 2026-05-09 00:19 | 21.01551 | 59.68463 | 37807 ft | 473 kts | 327° |
| 2026-05-09 00:19 | 21.07194 | 59.64826 | 37822 ft | 474 kts | 327° |
| 2026-05-09 00:20 | 21.12843 | 59.61181 | 37822 ft | 474 kts | 327° |
| 2026-05-09 00:20 | 21.18498 | 59.57528 | 37807 ft | 475 kts | 327° |
| 2026-05-09 00:21 | 21.24161 | 59.53868 | 37805 ft | 475 kts | 327° |
| 2026-05-09 00:21 | 21.29823 | 59.50208 | 37805 ft | 476 kts | 327° |
| 2026-05-09 00:22 | 21.35498 | 59.46539 | 37802 ft | 476 kts | 327° |
| 2026-05-09 00:22 | 21.41172 | 59.42866 | 37820 ft | 476 kts | 327° |
| 2026-05-09 00:23 | 21.46846 | 59.39190 | 37807 ft | 476 kts | 327° |
| 2026-05-09 00:23 | 21.52524 | 59.35506 | 37807 ft | 476 kts | 327° |
| 2026-05-09 00:24 | 21.58196 | 59.31823 | 37800 ft | 477 kts | 327° |
| 2026-05-09 00:24 | 21.63836 | 59.28161 | 37810 ft | 476 kts | 327° |
| 2026-05-09 00:25 | 21.69503 | 59.24486 | 37813 ft | 476 kts | 327° |
| 2026-05-09 00:25 | 21.75178 | 59.20802 | 37813 ft | 476 kts | 327° |
| 2026-05-09 00:26 | 21.80847 | 59.17117 | 37822 ft | 475 kts | 327° |
| 2026-05-09 00:26 | 21.86504 | 59.13435 | 37819 ft | 475 kts | 327° |
| 2026-05-09 00:27 | 21.92165 | 59.09747 | 37819 ft | 475 kts | 327° |
| 2026-05-09 00:27 | 21.97821 | 59.06060 | 37821 ft | 475 kts | 327° |
| 2026-05-09 00:28 | 22.03473 | 59.02370 | 37821 ft | 475 kts | 327° |
| 2026-05-09 00:28 | 22.09128 | 58.98677 | 37826 ft | 475 kts | 327° |
| 2026-05-09 00:29 | 22.14749 | 58.95000 | 37830 ft | 475 kts | 326° |
| 2026-05-09 00:29 | 22.20404 | 58.91298 | 37828 ft | 476 kts | 327° |
| 2026-05-09 00:30 | 22.26062 | 58.87592 | 37832 ft | 476 kts | 326° |
| 2026-05-09 00:30 | 22.31720 | 58.83879 | 37833 ft | 476 kts | 326° |
| 2026-05-09 00:31 | 22.37374 | 58.80164 | 37830 ft | 476 kts | 326° |
| 2026-05-09 00:31 | 22.43030 | 58.76443 | 37833 ft | 476 kts | 326° |
| 2026-05-09 00:32 | 22.48687 | 58.72719 | 37832 ft | 476 kts | 326° |
| 2026-05-09 00:32 | 22.54338 | 58.68994 | 37829 ft | 475 kts | 326° |
| 2026-05-09 00:33 | 22.59983 | 58.65270 | 37830 ft | 475 kts | 326° |
| 2026-05-09 00:33 | 22.65622 | 58.61546 | 37831 ft | 475 kts | 326° |
| 2026-05-09 00:34 | 22.71255 | 58.57827 | 37826 ft | 474 kts | 326° |
| 2026-05-09 00:34 | 22.76893 | 58.54104 | 37830 ft | 474 kts | 326° |
| 2026-05-09 00:35 | 22.82524 | 58.50380 | 37834 ft | 474 kts | 326° |
| 2026-05-09 00:35 | 22.88159 | 58.46649 | 37831 ft | 474 kts | 326° |
| 2026-05-09 00:36 | 22.93795 | 58.42914 | 37828 ft | 475 kts | 326° |
| 2026-05-09 00:36 | 22.99393 | 58.39199 | 37831 ft | 475 kts | 326° |
| 2026-05-09 00:37 | 23.05032 | 58.35453 | 37822 ft | 475 kts | 326° |
| 2026-05-09 00:37 | 23.10670 | 58.31693 | 37818 ft | 475 kts | 326° |
| 2026-05-09 00:38 | 23.16305 | 58.27929 | 37809 ft | 475 kts | 326° |
| 2026-05-09 00:38 | 23.21938 | 58.24164 | 37801 ft | 475 kts | 326° |
| 2026-05-09 00:39 | 23.27576 | 58.20392 | 37792 ft | 475 kts | 326° |
| 2026-05-09 00:39 | 23.33179 | 58.16640 | 37771 ft | 476 kts | 326° |
| 2026-05-09 00:40 | 23.38593 | 58.12553 | 37759 ft | 472 kts | 316° |
| 2026-05-09 00:40 | 23.43066 | 58.07390 | 37758 ft | 467 kts | 304° |
| 2026-05-09 00:41 | 23.48658 | 57.98719 | 37770 ft | 466 kts | 302° |
| 2026-05-09 00:41 | 23.52388 | 57.92940 | 37786 ft | 466 kts | 303° |
| 2026-05-09 00:42 | 23.56154 | 57.87169 | 37785 ft | 467 kts | 303° |
| 2026-05-09 00:42 | 23.59923 | 57.81413 | 37789 ft | 467 kts | 304° |
| 2026-05-09 00:43 | 23.63909 | 57.75824 | 37793 ft | 468 kts | 306° |
| 2026-05-09 00:43 | 23.67958 | 57.70263 | 37785 ft | 468 kts | 305° |
| 2026-05-09 00:44 | 23.71969 | 57.64667 | 37781 ft | 468 kts | 305° |
| 2026-05-09 00:44 | 23.75960 | 57.59063 | 37779 ft | 468 kts | 305° |
| 2026-05-09 00:45 | 23.79931 | 57.53492 | 37780 ft | 468 kts | 305° |
| 2026-05-09 00:45 | 23.83925 | 57.47891 | 37783 ft | 468 kts | 305° |
| 2026-05-09 00:46 | 23.87919 | 57.42282 | 37774 ft | 467 kts | 304° |
| 2026-05-09 00:46 | 23.91867 | 57.36732 | 37095 ft | 462 kts | 305° |
| 2026-05-09 00:47 | 23.93825 | 57.33976 | 36683 ft | 456 kts | 305° |
| 2026-05-09 00:47 | 23.95766 | 57.31243 | 36204 ft | 452 kts | 305° |
| 2026-05-09 00:47 | 23.97683 | 57.28541 | 35766 ft | 448 kts | 305° |
| 2026-05-09 00:47 | 23.99590 | 57.25852 | 35310 ft | 445 kts | 305° |
| 2026-05-09 00:48 | 24.01478 | 57.23188 | 34849 ft | 442 kts | 305° |
| 2026-05-09 00:48 | 24.03357 | 57.20534 | 34375 ft | 440 kts | 305° |
| 2026-05-09 00:48 | 24.05228 | 57.17892 | 33903 ft | 438 kts | 305° |
| 2026-05-09 00:48 | 24.07089 | 57.15260 | 33396 ft | 436 kts | 305° |
| 2026-05-09 00:49 | 24.08940 | 57.12644 | 32909 ft | 433 kts | 305° |
| 2026-05-09 00:49 | 24.10774 | 57.10049 | 32436 ft | 429 kts | 305° |
| 2026-05-09 00:49 | 24.12596 | 57.07471 | 31987 ft | 426 kts | 305° |
| 2026-05-09 00:49 | 24.14402 | 57.04912 | 31533 ft | 423 kts | 305° |
| 2026-05-09 00:50 | 24.16175 | 57.02399 | 31087 ft | 421 kts | 305° |
| 2026-05-09 00:50 | 24.17957 | 56.99872 | 30655 ft | 418 kts | 305° |
| 2026-05-09 00:50 | 24.19730 | 56.97358 | 30195 ft | 416 kts | 304° |
| 2026-05-09 00:50 | 24.21498 | 56.94849 | 29740 ft | 414 kts | 304° |
| 2026-05-09 00:51 | 24.23253 | 56.92354 | 29218 ft | 412 kts | 304° |
| 2026-05-09 00:51 | 24.24997 | 56.89869 | 28736 ft | 410 kts | 304° |
| 2026-05-09 00:51 | 24.26725 | 56.87403 | 28271 ft | 407 kts | 304° |
| 2026-05-09 00:51 | 24.28445 | 56.84949 | 27825 ft | 405 kts | 304° |
| 2026-05-09 00:52 | 24.30152 | 56.82510 | 27365 ft | 403 kts | 304° |
| 2026-05-09 00:52 | 24.31854 | 56.80078 | 26926 ft | 401 kts | 304° |
| 2026-05-09 00:52 | 24.33547 | 56.77656 | 26474 ft | 399 kts | 304° |
| 2026-05-09 00:52 | 24.35229 | 56.75251 | 26032 ft | 397 kts | 304° |
| 2026-05-09 00:53 | 24.36910 | 56.72845 | 25595 ft | 396 kts | 304° |
| 2026-05-09 00:53 | 24.38584 | 56.70448 | 25152 ft | 396 kts | 304° |
| 2026-05-09 00:53 | 24.40257 | 56.68051 | 24709 ft | 395 kts | 304° |
| 2026-05-09 00:53 | 24.41925 | 56.65661 | 24266 ft | 395 kts | 304° |
| 2026-05-09 00:54 | 24.43615 | 56.63280 | 23824 ft | 396 kts | 307° |
| 2026-05-09 00:54 | 24.45458 | 56.61031 | 23379 ft | 397 kts | 310° |
| 2026-05-09 00:54 | 24.47353 | 56.58829 | 22885 ft | 397 kts | 311° |
| 2026-05-09 00:54 | 24.49259 | 56.56637 | 22417 ft | 396 kts | 311° |
| 2026-05-09 00:55 | 24.51152 | 56.54454 | 21963 ft | 394 kts | 311° |
| 2026-05-09 00:55 | 24.53037 | 56.52271 | 21533 ft | 393 kts | 311° |
| 2026-05-09 00:55 | 24.54911 | 56.50090 | 21100 ft | 392 kts | 311° |
| 2026-05-09 00:55 | 24.56775 | 56.47916 | 20669 ft | 391 kts | 311° |
| 2026-05-09 00:56 | 24.58633 | 56.45744 | 20247 ft | 390 kts | 311° |
| 2026-05-09 00:56 | 24.60490 | 56.43572 | 19807 ft | 389 kts | 311° |
| 2026-05-09 00:56 | 24.62343 | 56.41402 | 19365 ft | 389 kts | 311° |
| 2026-05-09 00:56 | 24.64194 | 56.39235 | 18928 ft | 389 kts | 311° |
| 2026-05-09 00:57 | 24.66048 | 56.37064 | 18482 ft | 389 kts | 312° |
| 2026-05-09 00:57 | 24.67900 | 56.34893 | 18027 ft | 390 kts | 312° |
| 2026-05-09 00:57 | 24.69756 | 56.32721 | 17519 ft | 388 kts | 313° |
| 2026-05-09 00:57 | 24.71810 | 56.30815 | 17034 ft | 387 kts | 326° |
| 2026-05-09 00:58 | 24.74198 | 56.29474 | 16611 ft | 385 kts | 339° |
| 2026-05-09 00:58 | 24.76748 | 56.28632 | 16177 ft | 381 kts | 346° |
| 2026-05-09 00:58 | 24.79310 | 56.27910 | 15723 ft | 380 kts | 346° |
| 2026-05-09 00:58 | 24.81833 | 56.27182 | 15294 ft | 379 kts | 345° |
| 2026-05-09 00:59 | 24.84378 | 56.26429 | 14861 ft | 378 kts | 345° |
| 2026-05-09 00:59 | 24.86782 | 56.25363 | 14409 ft | 373 kts | 328° |
| 2026-05-09 00:59 | 24.88725 | 56.23495 | 14004 ft | 372 kts | 309° |
| 2026-05-09 00:59 | 24.90114 | 56.21110 | 13566 ft | 368 kts | 298° |
| 2026-05-09 01:00 | 24.91336 | 56.18633 | 13086 ft | 368 kts | 298° |
| 2026-05-09 01:00 | 24.92558 | 56.16157 | 12645 ft | 367 kts | 298° |
| 2026-05-09 01:00 | 24.93788 | 56.13701 | 12216 ft | 366 kts | 299° |
| 2026-05-09 01:00 | 24.95014 | 56.11285 | 12055 ft | 356 kts | 299° |
| 2026-05-09 01:01 | 24.96210 | 56.08939 | 11903 ft | 347 kts | 299° |
| 2026-05-09 01:01 | 24.97399 | 56.06663 | 11738 ft | 337 kts | 303° |
| 2026-05-09 01:01 | 24.98831 | 56.04687 | 11695 ft | 323 kts | 313° |
| 2026-05-09 01:01 | 25.00356 | 56.02931 | 11611 ft | 312 kts | 314° |
| 2026-05-09 01:02 | 25.01839 | 56.01238 | 11533 ft | 301 kts | 313° |
| 2026-05-09 01:02 | 25.03248 | 55.99578 | 11358 ft | 295 kts | 312° |
| 2026-05-09 01:02 | 25.04641 | 55.97904 | 11006 ft | 295 kts | 312° |
| 2026-05-09 01:02 | 25.06009 | 55.96249 | 10824 ft | 289 kts | 312° |
| 2026-05-09 01:03 | 25.07334 | 55.94631 | 10711 ft | 280 kts | 311° |
| 2026-05-09 01:03 | 25.08614 | 55.93061 | 10613 ft | 271 kts | 311° |
| 2026-05-09 01:03 | 25.09862 | 55.91527 | 10535 ft | 268 kts | 311° |
| 2026-05-09 01:03 | 25.11118 | 55.89984 | 10461 ft | 273 kts | 311° |
| 2026-05-09 01:04 | 25.12400 | 55.88411 | 10372 ft | 277 kts | 311° |
| 2026-05-09 01:04 | 25.13687 | 55.86829 | 10286 ft | 277 kts | 311° |
| 2026-05-09 01:04 | 25.14970 | 55.85253 | 10183 ft | 275 kts | 311° |
| 2026-05-09 01:04 | 25.16179 | 55.83633 | 10072 ft | 272 kts | 303° |
| 2026-05-09 01:05 | 25.17173 | 55.81867 | 9997 ft | 270 kts | 299° |
| 2026-05-09 01:05 | 25.17784 | 55.80726 | 9942 ft | 269 kts | 299° |
| 2026-05-09 01:05 | 25.19390 | 55.77066 | 9697 ft | 264 kts | 280° |
| 2026-05-09 01:06 | 25.19724 | 55.75059 | 9550 ft | 268 kts | 279° |
| 2026-05-09 01:06 | 25.20057 | 55.73025 | 9350 ft | 270 kts | 279° |
| 2026-05-09 01:06 | 25.20395 | 55.70988 | 9178 ft | 269 kts | 279° |
| 2026-05-09 01:06 | 25.20737 | 55.68960 | 8994 ft | 268 kts | 279° |
| 2026-05-09 01:07 | 25.21080 | 55.66940 | 8823 ft | 267 kts | 280° |
| 2026-05-09 01:07 | 25.21422 | 55.64940 | 8645 ft | 265 kts | 280° |
| 2026-05-09 01:07 | 25.21765 | 55.62946 | 8482 ft | 263 kts | 280° |
| 2026-05-09 01:07 | 25.22106 | 55.60964 | 8300 ft | 262 kts | 280° |
| 2026-05-09 01:08 | 25.22445 | 55.58999 | 8136 ft | 260 kts | 280° |
| 2026-05-09 01:08 | 25.22781 | 55.57043 | 7968 ft | 259 kts | 280° |
| 2026-05-09 01:08 | 25.23112 | 55.55091 | 7804 ft | 257 kts | 278° |
| 2026-05-09 01:08 | 25.23259 | 55.53129 | 7625 ft | 255 kts | 271° |
| 2026-05-09 01:09 | 25.23289 | 55.51176 | 7458 ft | 254 kts | 270° |
| 2026-05-09 01:09 | 25.23310 | 55.49228 | 7291 ft | 254 kts | 270° |
| 2026-05-09 01:09 | 25.23337 | 55.47276 | 7119 ft | 253 kts | 271° |
| 2026-05-09 01:09 | 25.23370 | 55.45331 | 6953 ft | 253 kts | 271° |
| 2026-05-09 01:10 | 25.23409 | 55.43388 | 6783 ft | 253 kts | 271° |
| 2026-05-09 01:10 | 25.23451 | 55.41445 | 6612 ft | 253 kts | 271° |
| 2026-05-09 01:10 | 25.23496 | 55.39502 | 6442 ft | 253 kts | 271° |
| 2026-05-09 01:10 | 25.23542 | 55.37557 | 6268 ft | 253 kts | 272° |
| 2026-05-09 01:11 | 25.23587 | 55.35623 | 6124 ft | 250 kts | 271° |
| 2026-05-09 01:11 | 25.23632 | 55.33718 | 5918 ft | 245 kts | 271° |
| 2026-05-09 01:11 | 25.23754 | 55.31871 | 5750 ft | 236 kts | 281° |
| 2026-05-09 01:11 | 25.24160 | 55.30149 | 5626 ft | 228 kts | 286° |
| 2026-05-09 01:12 | 25.24610 | 55.28491 | 5524 ft | 224 kts | 286° |
| 2026-05-09 01:12 | 25.25045 | 55.26848 | 5404 ft | 222 kts | 285° |
| 2026-05-09 01:12 | 25.25468 | 55.25208 | 5305 ft | 222 kts | 285° |
| 2026-05-09 01:12 | 25.25883 | 55.23568 | 5191 ft | 221 kts | 285° |
| 2026-05-09 01:13 | 25.26295 | 55.21930 | 5074 ft | 221 kts | 285° |
| 2026-05-09 01:13 | 25.26704 | 55.20292 | 4965 ft | 221 kts | 285° |
| 2026-05-09 01:13 | 25.27228 | 55.18708 | 4837 ft | 219 kts | 298° |